sensor_id;sensor_type;location;lat;lon;timestamp;P1;durP1;ratioP1;P2;durP2;ratioP2
64932;SDS011;51446;53.850;10.662;2023-04-01T00:01:38;10.30;;;7.93;;
64932;SDS011;51446;53.850;10.662;2023-04-01T00:04:03;12.10;;;8.47;;
64932;SDS011;51446;53.850;10.662;2023-04-01T00:06:29;12.23;;;7.77;;
64932;SDS011;51446;53.850;10.662;2023-04-01T00:08:55;12.45;;;8.48;;
64932;SDS011;51446;53.850;10.662;2023-04-01T00:11:20;14.00;;;9.10;;
64932;SDS011;51446;53.850;10.662;2023-04-01T00:13:46;13.33;;;9.23;;
64932;SDS011;51446;53.850;10.662;2023-04-01T00:16:12;11.88;;;8.48;;
64932;SDS011;51446;53.850;10.662;2023-04-01T00:18:38;11.35;;;8.55;;
64932;SDS011;51446;53.850;10.662;2023-04-01T00:21:04;13.10;;;8.93;;
64932;SDS011;51446;53.850;10.662;2023-04-01T00:23:30;14.30;;;9.25;;
64932;SDS011;51446;53.850;10.662;2023-04-01T00:25:55;15.20;;;8.80;;
64932;SDS011;51446;53.850;10.662;2023-04-01T00:28:21;17.30;;;9.63;;
64932;SDS011;51446;53.850;10.662;2023-04-01T00:30:46;14.77;;;9.53;;
64932;SDS011;51446;53.850;10.662;2023-04-01T00:33:12;14.73;;;9.48;;
64932;SDS011;51446;53.850;10.662;2023-04-01T00:35:37;14.90;;;10.10;;
64932;SDS011;51446;53.850;10.662;2023-04-01T00:38:04;15.43;;;9.98;;
64932;SDS011;51446;53.850;10.662;2023-04-01T00:40:35;15.15;;;10.23;;
64932;SDS011;51446;53.850;10.662;2023-04-01T00:43:03;16.45;;;10.43;;
64932;SDS011;51446;53.850;10.662;2023-04-01T00:45:36;17.48;;;10.32;;
64932;SDS011;51446;53.850;10.662;2023-04-01T00:48:05;15.20;;;10.50;;
64932;SDS011;51446;53.850;10.662;2023-04-01T00:50:34;15.52;;;9.68;;
64932;SDS011;51446;53.850;10.662;2023-04-01T00:53:01;15.88;;;10.10;;
64932;SDS011;51446;53.850;10.662;2023-04-01T00:55:28;15.20;;;10.73;;
64932;SDS011;51446;53.850;10.662;2023-04-01T00:57:57;17.45;;;11.18;;
64932;SDS011;51446;53.850;10.662;2023-04-01T01:00:25;18.08;;;10.93;;
64932;SDS011;51446;53.850;10.662;2023-04-01T01:02:51;15.73;;;11.25;;
64932;SDS011;51446;53.850;10.662;2023-04-01T01:05:17;17.55;;;11.38;;
64932;SDS011;51446;53.850;10.662;2023-04-01T01:10:26;15.38;;;11.05;;
64932;SDS011;51446;53.850;10.662;2023-04-01T01:13:25;14.90;;;11.00;;
64932;SDS011;51446;53.850;10.662;2023-04-01T01:16:00;15.43;;;10.82;;
64932;SDS011;51446;53.850;10.662;2023-04-01T01:21:48;16.98;;;11.93;;
64932;SDS011;51446;53.850;10.662;2023-04-01T01:27:11;14.90;;;10.82;;
64932;SDS011;51446;53.850;10.662;2023-04-01T01:37:46;21.60;;;12.30;;
64932;SDS011;51446;53.850;10.662;2023-04-01T01:40:16;20.25;;;12.02;;
64932;SDS011;51446;53.850;10.662;2023-04-01T01:42:46;21.35;;;12.43;;
64932;SDS011;51446;53.850;10.662;2023-04-01T01:45:16;21.95;;;12.88;;
64932;SDS011;51446;53.850;10.662;2023-04-01T01:47:45;22.30;;;12.77;;
64932;SDS011;51446;53.850;10.662;2023-04-01T01:50:11;18.98;;;12.13;;
64932;SDS011;51446;53.850;10.662;2023-04-01T01:52:38;21.95;;;13.05;;
64932;SDS011;51446;53.850;10.662;2023-04-01T01:55:22;21.00;;;13.03;;
64932;SDS011;51446;53.850;10.662;2023-04-01T01:57:48;22.17;;;13.55;;
64932;SDS011;51446;53.850;10.662;2023-04-01T02:00:14;23.57;;;13.20;;
64932;SDS011;51446;53.850;10.662;2023-04-01T02:02:42;21.73;;;12.98;;
64932;SDS011;51446;53.850;10.662;2023-04-01T02:05:10;20.65;;;13.15;;
64932;SDS011;51446;53.850;10.662;2023-04-01T02:07:44;21.13;;;13.50;;
64932;SDS011;51446;53.850;10.662;2023-04-01T02:10:14;19.65;;;12.43;;
64932;SDS011;51446;53.850;10.662;2023-04-01T02:12:40;19.77;;;12.87;;
64932;SDS011;51446;53.850;10.662;2023-04-01T02:15:10;23.23;;;12.82;;
64932;SDS011;51446;53.850;10.662;2023-04-01T02:17:39;22.55;;;13.30;;
64932;SDS011;51446;53.850;10.662;2023-04-01T02:20:09;23.42;;;13.27;;
64932;SDS011;51446;53.850;10.662;2023-04-01T02:22:40;21.52;;;11.75;;
64932;SDS011;51446;53.850;10.662;2023-04-01T02:25:11;17.63;;;11.20;;
64932;SDS011;51446;53.850;10.662;2023-04-01T02:27:39;18.08;;;10.57;;
64932;SDS011;51446;53.850;10.662;2023-04-01T02:30:07;17.13;;;9.30;;
64932;SDS011;51446;53.850;10.662;2023-04-01T02:32:33;14.38;;;8.20;;
64932;SDS011;51446;53.850;10.662;2023-04-01T02:35:02;14.20;;;8.45;;
64932;SDS011;51446;53.850;10.662;2023-04-01T02:37:31;12.77;;;6.95;;
64932;SDS011;51446;53.850;10.662;2023-04-01T02:40:00;10.40;;;7.30;;
64932;SDS011;51446;53.850;10.662;2023-04-01T02:42:27;10.52;;;6.15;;
64932;SDS011;51446;53.850;10.662;2023-04-01T02:44:52;11.30;;;7.37;;
64932;SDS011;51446;53.850;10.662;2023-04-01T02:47:17;8.40;;;6.13;;
64932;SDS011;51446;53.850;10.662;2023-04-01T02:49:42;6.70;;;4.63;;
64932;SDS011;51446;53.850;10.662;2023-04-01T02:52:08;7.50;;;4.43;;
64932;SDS011;51446;53.850;10.662;2023-04-01T02:54:33;6.30;;;4.40;;
64932;SDS011;51446;53.850;10.662;2023-04-01T02:56:58;5.87;;;4.13;;
64932;SDS011;51446;53.850;10.662;2023-04-01T02:59:23;6.87;;;4.43;;
64932;SDS011;51446;53.850;10.662;2023-04-01T03:01:49;6.70;;;4.60;;
64932;SDS011;51446;53.850;10.662;2023-04-01T03:04:14;5.90;;;4.45;;
64932;SDS011;51446;53.850;10.662;2023-04-01T03:06:39;7.30;;;4.10;;
64932;SDS011;51446;53.850;10.662;2023-04-01T03:09:05;6.80;;;4.40;;
64932;SDS011;51446;53.850;10.662;2023-04-01T03:11:30;6.43;;;4.63;;
64932;SDS011;51446;53.850;10.662;2023-04-01T03:13:55;7.27;;;4.40;;
64932;SDS011;51446;53.850;10.662;2023-04-01T03:16:21;5.30;;;4.23;;
64932;SDS011;51446;53.850;10.662;2023-04-01T03:18:46;5.30;;;4.30;;
64932;SDS011;51446;53.850;10.662;2023-04-01T03:21:12;5.50;;;4.13;;
64932;SDS011;51446;53.850;10.662;2023-04-01T03:23:47;5.13;;;4.03;;
64932;SDS011;51446;53.850;10.662;2023-04-01T03:26:12;5.40;;;4.13;;
64932;SDS011;51446;53.850;10.662;2023-04-01T03:28:38;5.30;;;4.00;;
64932;SDS011;51446;53.850;10.662;2023-04-01T03:31:04;7.90;;;4.45;;
64932;SDS011;51446;53.850;10.662;2023-04-01T03:33:29;4.33;;;3.43;;
64932;SDS011;51446;53.850;10.662;2023-04-01T03:35:55;4.40;;;3.53;;
64932;SDS011;51446;53.850;10.662;2023-04-01T03:38:21;4.83;;;3.40;;
64932;SDS011;51446;53.850;10.662;2023-04-01T03:40:46;4.77;;;3.60;;
64932;SDS011;51446;53.850;10.662;2023-04-01T03:43:11;3.70;;;3.40;;
64932;SDS011;51446;53.850;10.662;2023-04-01T03:45:43;3.83;;;3.33;;
64932;SDS011;51446;53.850;10.662;2023-04-01T03:48:09;4.93;;;3.40;;
64932;SDS011;51446;53.850;10.662;2023-04-01T03:50:35;5.37;;;3.60;;
64932;SDS011;51446;53.850;10.662;2023-04-01T03:53:00;5.90;;;4.47;;
64932;SDS011;51446;53.850;10.662;2023-04-01T03:55:25;4.95;;;4.10;;
64932;SDS011;51446;53.850;10.662;2023-04-01T03:57:50;6.10;;;4.97;;
64932;SDS011;51446;53.850;10.662;2023-04-01T04:00:16;6.30;;;4.20;;
64932;SDS011;51446;53.850;10.662;2023-04-01T04:02:41;4.23;;;3.83;;
64932;SDS011;51446;53.850;10.662;2023-04-01T04:05:07;3.87;;;3.30;;
64932;SDS011;51446;53.850;10.662;2023-04-01T04:07:33;3.43;;;2.87;;
64932;SDS011;51446;53.850;10.662;2023-04-01T04:09:59;4.57;;;2.90;;
64932;SDS011;51446;53.850;10.662;2023-04-01T04:12:24;3.20;;;2.90;;
64932;SDS011;51446;53.850;10.662;2023-04-01T04:14:50;3.33;;;2.97;;
64932;SDS011;51446;53.850;10.662;2023-04-01T04:17:15;3.07;;;2.77;;
64932;SDS011;51446;53.850;10.662;2023-04-01T04:19:41;4.18;;;3.20;;
64932;SDS011;51446;53.850;10.662;2023-04-01T04:22:06;6.30;;;3.03;;
64932;SDS011;51446;53.850;10.662;2023-04-01T04:24:33;4.67;;;3.20;;
64932;SDS011;51446;53.850;10.662;2023-04-01T04:26:59;2.78;;;2.42;;
64932;SDS011;51446;53.850;10.662;2023-04-01T04:29:24;3.00;;;2.63;;
64932;SDS011;51446;53.850;10.662;2023-04-01T04:31:50;3.37;;;2.93;;
64932;SDS011;51446;53.850;10.662;2023-04-01T04:34:15;4.10;;;2.80;;
64932;SDS011;51446;53.850;10.662;2023-04-01T04:36:40;3.57;;;3.03;;
64932;SDS011;51446;53.850;10.662;2023-04-01T04:39:05;3.83;;;3.20;;
64932;SDS011;51446;53.850;10.662;2023-04-01T04:41:31;3.93;;;3.40;;
64932;SDS011;51446;53.850;10.662;2023-04-01T04:43:56;3.77;;;3.47;;
64932;SDS011;51446;53.850;10.662;2023-04-01T04:46:22;3.67;;;2.97;;
64932;SDS011;51446;53.850;10.662;2023-04-01T04:48:47;3.17;;;2.90;;
64932;SDS011;51446;53.850;10.662;2023-04-01T04:51:16;2.97;;;2.70;;
64932;SDS011;51446;53.850;10.662;2023-04-01T04:53:43;2.80;;;2.42;;
64932;SDS011;51446;53.850;10.662;2023-04-01T04:56:08;2.60;;;2.40;;
64932;SDS011;51446;53.850;10.662;2023-04-01T04:58:34;4.43;;;2.97;;
64932;SDS011;51446;53.850;10.662;2023-04-01T05:01:04;3.20;;;2.90;;
64932;SDS011;51446;53.850;10.662;2023-04-01T05:03:30;3.85;;;3.45;;
64932;SDS011;51446;53.850;10.662;2023-04-01T05:05:56;3.93;;;3.43;;
64932;SDS011;51446;53.850;10.662;2023-04-01T05:08:21;3.80;;;3.50;;
64932;SDS011;51446;53.850;10.662;2023-04-01T05:10:46;3.60;;;3.30;;
64932;SDS011;51446;53.850;10.662;2023-04-01T05:13:12;3.10;;;2.80;;
64932;SDS011;51446;53.850;10.662;2023-04-01T05:15:37;3.03;;;2.83;;
64932;SDS011;51446;53.850;10.662;2023-04-01T05:18:02;3.93;;;2.90;;
64932;SDS011;51446;53.850;10.662;2023-04-01T05:20:28;2.90;;;2.60;;
64932;SDS011;51446;53.850;10.662;2023-04-01T05:22:56;2.40;;;2.20;;
64932;SDS011;51446;53.850;10.662;2023-04-01T05:25:22;2.50;;;2.30;;
64932;SDS011;51446;53.850;10.662;2023-04-01T05:27:48;2.50;;;2.30;;
64932;SDS011;51446;53.850;10.662;2023-04-01T05:30:13;2.90;;;2.70;;
64932;SDS011;51446;53.850;10.662;2023-04-01T05:32:38;2.70;;;2.50;;
64932;SDS011;51446;53.850;10.662;2023-04-01T05:35:04;2.83;;;2.63;;
64932;SDS011;51446;53.850;10.662;2023-04-01T05:37:29;2.87;;;2.50;;
64932;SDS011;51446;53.850;10.662;2023-04-01T05:39:55;2.63;;;2.42;;
64932;SDS011;51446;53.850;10.662;2023-04-01T05:42:20;3.23;;;2.30;;
64932;SDS011;51446;53.850;10.662;2023-04-01T05:44:45;2.87;;;2.30;;
64932;SDS011;51446;53.850;10.662;2023-04-01T05:47:10;5.33;;;2.73;;
64932;SDS011;51446;53.850;10.662;2023-04-01T05:49:36;7.67;;;3.40;;
64932;SDS011;51446;53.850;10.662;2023-04-01T05:52:01;5.20;;;3.40;;
64932;SDS011;51446;53.850;10.662;2023-04-01T05:54:26;4.10;;;3.50;;
64932;SDS011;51446;53.850;10.662;2023-04-01T05:56:51;5.20;;;3.60;;
64932;SDS011;51446;53.850;10.662;2023-04-01T05:59:17;4.27;;;3.40;;
64932;SDS011;51446;53.850;10.662;2023-04-01T06:01:42;4.53;;;3.60;;
64932;SDS011;51446;53.850;10.662;2023-04-01T06:04:10;4.00;;;3.37;;
64932;SDS011;51446;53.850;10.662;2023-04-01T06:06:38;4.45;;;3.17;;
64932;SDS011;51446;53.850;10.662;2023-04-01T06:09:07;4.80;;;3.70;;
64932;SDS011;51446;53.850;10.662;2023-04-01T06:17:34;3.58;;;2.90;;
64932;SDS011;51446;53.850;10.662;2023-04-01T06:20:25;3.63;;;2.78;;
64932;SDS011;51446;53.850;10.662;2023-04-01T06:23:16;3.13;;;2.83;;
64932;SDS011;51446;53.850;10.662;2023-04-01T06:25:57;4.10;;;3.03;;
64932;SDS011;51446;53.850;10.662;2023-04-01T06:28:36;6.00;;;4.15;;
64932;SDS011;51446;53.850;10.662;2023-04-01T06:39:35;3.95;;;3.50;;
64932;SDS011;51446;53.850;10.662;2023-04-01T06:54:34;4.95;;;3.28;;
64932;SDS011;51446;53.850;10.662;2023-04-01T07:03:16;4.10;;;3.45;;
64932;SDS011;51446;53.850;10.662;2023-04-01T07:05:43;3.87;;;3.30;;
64932;SDS011;51446;53.850;10.662;2023-04-01T07:08:10;3.03;;;2.78;;
64932;SDS011;51446;53.850;10.662;2023-04-01T07:13:23;3.13;;;2.75;;
64932;SDS011;51446;53.850;10.662;2023-04-01T07:16:03;2.67;;;2.47;;
64932;SDS011;51446;53.850;10.662;2023-04-01T07:18:44;2.70;;;2.50;;
64932;SDS011;51446;53.850;10.662;2023-04-01T07:21:57;3.00;;;2.70;;
64932;SDS011;51446;53.850;10.662;2023-04-01T07:24:10;5.18;;;2.60;;
64932;SDS011;51446;53.850;10.662;2023-04-01T07:26:40;4.68;;;2.78;;
64932;SDS011;51446;53.850;10.662;2023-04-01T07:29:09;3.07;;;2.70;;
64932;SDS011;51446;53.850;10.662;2023-04-01T07:42:53;3.13;;;2.70;;
64932;SDS011;51446;53.850;10.662;2023-04-01T07:57:12;2.60;;;2.40;;
64932;SDS011;51446;53.850;10.662;2023-04-01T08:07:30;3.63;;;2.37;;
64932;SDS011;51446;53.850;10.662;2023-04-01T08:12:44;3.03;;;2.50;;
64932;SDS011;51446;53.850;10.662;2023-04-01T08:16:35;3.35;;;2.55;;
64932;SDS011;51446;53.850;10.662;2023-04-01T08:21:17;2.65;;;2.20;;
64932;SDS011;51446;53.850;10.662;2023-04-01T08:23:51;2.97;;;2.30;;
64932;SDS011;51446;53.850;10.662;2023-04-01T08:26:32;4.07;;;2.40;;
64932;SDS011;51446;53.850;10.662;2023-04-01T08:29:04;3.25;;;2.15;;
64932;SDS011;51446;53.850;10.662;2023-04-01T08:31:37;2.63;;;2.20;;
64932;SDS011;51446;53.850;10.662;2023-04-01T08:34:15;1.90;;;1.80;;
64932;SDS011;51446;53.850;10.662;2023-04-01T08:36:51;2.10;;;2.00;;
64932;SDS011;51446;53.850;10.662;2023-04-01T08:39:27;2.22;;;2.00;;
64932;SDS011;51446;53.850;10.662;2023-04-01T08:44:58;4.27;;;2.20;;
64932;SDS011;51446;53.850;10.662;2023-04-01T08:56:00;2.20;;;2.00;;
64932;SDS011;51446;53.850;10.662;2023-04-01T09:06:57;2.28;;;1.90;;
64932;SDS011;51446;53.850;10.662;2023-04-01T09:09:51;2.15;;;2.00;;
64932;SDS011;51446;53.850;10.662;2023-04-01T09:23:55;2.50;;;2.25;;
64932;SDS011;51446;53.850;10.662;2023-04-01T09:29:45;2.47;;;2.28;;
64932;SDS011;51446;53.850;10.662;2023-04-01T09:35:15;2.20;;;2.10;;
64932;SDS011;51446;53.850;10.662;2023-04-01T09:49:13;2.65;;;2.45;;
64932;SDS011;51446;53.850;10.662;2023-04-01T09:51:53;2.72;;;2.42;;
64932;SDS011;51446;53.850;10.662;2023-04-01T10:00:05;3.28;;;2.58;;
64932;SDS011;51446;53.850;10.662;2023-04-01T10:14:19;4.18;;;3.55;;
64932;SDS011;51446;53.850;10.662;2023-04-01T10:36:57;5.10;;;4.53;;
64932;SDS011;51446;53.850;10.662;2023-04-01T10:39:30;5.78;;;3.90;;
64932;SDS011;51446;53.850;10.662;2023-04-01T10:53:08;7.57;;;5.10;;
64932;SDS011;51446;53.850;10.662;2023-04-01T11:07:35;6.50;;;4.78;;
64932;SDS011;51446;53.850;10.662;2023-04-01T11:13:25;7.07;;;4.97;;
64932;SDS011;51446;53.850;10.662;2023-04-01T11:16:43;10.50;;;5.55;;
64932;SDS011;51446;53.850;10.662;2023-04-01T11:22:32;11.95;;;5.72;;
64932;SDS011;51446;53.850;10.662;2023-04-01T11:33:44;8.10;;;5.07;;
64932;SDS011;51446;53.850;10.662;2023-04-01T11:39:14;7.22;;;4.15;;
64932;SDS011;51446;53.850;10.662;2023-04-01T11:44:43;6.00;;;4.50;;
64932;SDS011;51446;53.850;10.662;2023-04-01T12:04:10;6.57;;;4.03;;
64932;SDS011;51446;53.850;10.662;2023-04-01T12:06:57;4.90;;;4.20;;
64932;SDS011;51446;53.850;10.662;2023-04-01T12:09:52;7.63;;;4.38;;
64932;SDS011;51446;53.850;10.662;2023-04-01T12:12:28;5.68;;;4.63;;
64932;SDS011;51446;53.850;10.662;2023-04-01T12:15:18;5.70;;;4.10;;
64932;SDS011;51446;53.850;10.662;2023-04-01T12:17:55;7.47;;;4.30;;
64932;SDS011;51446;53.850;10.662;2023-04-01T12:20:30;6.15;;;4.38;;
64932;SDS011;51446;53.850;10.662;2023-04-01T12:23:10;8.82;;;4.40;;
64932;SDS011;51446;53.850;10.662;2023-04-01T12:36:01;9.05;;;4.78;;
64932;SDS011;51446;53.850;10.662;2023-04-01T12:50:16;10.10;;;5.15;;
64932;SDS011;51446;53.850;10.662;2023-04-01T12:53:03;4.75;;;4.03;;
64932;SDS011;51446;53.850;10.662;2023-04-01T12:55:36;4.97;;;4.25;;
64932;SDS011;51446;53.850;10.662;2023-04-01T12:58:19;6.10;;;4.07;;
64932;SDS011;51446;53.850;10.662;2023-04-01T13:01:18;5.90;;;4.38;;
64932;SDS011;51446;53.850;10.662;2023-04-01T13:06:56;6.28;;;4.22;;
64932;SDS011;51446;53.850;10.662;2023-04-01T13:09:40;7.47;;;5.47;;
64932;SDS011;51446;53.850;10.662;2023-04-01T13:15:13;5.70;;;4.05;;
64932;SDS011;51446;53.850;10.662;2023-04-01T13:22:56;10.18;;;5.50;;
64932;SDS011;51446;53.850;10.662;2023-04-01T13:31:01;14.77;;;6.75;;
64932;SDS011;51446;53.850;10.662;2023-04-01T13:33:42;5.78;;;4.82;;
64932;SDS011;51446;53.850;10.662;2023-04-01T13:39:25;7.23;;;5.43;;
64932;SDS011;51446;53.850;10.662;2023-04-01T13:42:23;8.48;;;5.30;;
64932;SDS011;51446;53.850;10.662;2023-04-01T13:45:34;8.65;;;4.65;;
64932;SDS011;51446;53.850;10.662;2023-04-01T13:50:46;6.47;;;4.85;;
64932;SDS011;51446;53.850;10.662;2023-04-01T14:17:16;7.80;;;5.05;;
64932;SDS011;51446;53.850;10.662;2023-04-01T14:28:22;9.75;;;5.47;;
64932;SDS011;51446;53.850;10.662;2023-04-01T14:31:13;10.63;;;5.95;;
64932;SDS011;51446;53.850;10.662;2023-04-01T14:33:54;9.25;;;5.30;;
64932;SDS011;51446;53.850;10.662;2023-04-01T14:36:43;14.63;;;5.90;;
64932;SDS011;51446;53.850;10.662;2023-04-01T14:50:46;11.00;;;5.50;;
64932;SDS011;51446;53.850;10.662;2023-04-01T14:53:35;17.00;;;5.82;;
64932;SDS011;51446;53.850;10.662;2023-04-01T14:56:03;11.13;;;5.75;;
64932;SDS011;51446;53.850;10.662;2023-04-01T14:58:49;10.82;;;5.40;;
64932;SDS011;51446;53.850;10.662;2023-04-01T15:15:47;10.60;;;5.67;;
64932;SDS011;51446;53.850;10.662;2023-04-01T15:29:19;9.17;;;6.13;;
64932;SDS011;51446;53.850;10.662;2023-04-01T15:48:20;7.07;;;4.40;;
64932;SDS011;51446;53.850;10.662;2023-04-01T15:51:09;10.90;;;5.10;;
64932;SDS011;51446;53.850;10.662;2023-04-01T16:02:31;9.52;;;5.13;;
64932;SDS011;51446;53.850;10.662;2023-04-01T16:05:10;13.05;;;4.40;;
64932;SDS011;51446;53.850;10.662;2023-04-01T16:07:48;12.13;;;4.50;;
64932;SDS011;51446;53.850;10.662;2023-04-01T16:12:58;6.75;;;4.20;;
64932;SDS011;51446;53.850;10.662;2023-04-01T16:15:37;9.52;;;5.22;;
64932;SDS011;51446;53.850;10.662;2023-04-01T16:21:11;7.93;;;4.15;;
64932;SDS011;51446;53.850;10.662;2023-04-01T16:23:48;5.90;;;4.20;;
64932;SDS011;51446;53.850;10.662;2023-04-01T16:26:28;7.35;;;4.43;;
64932;SDS011;51446;53.850;10.662;2023-04-01T16:29:22;4.78;;;3.95;;
64932;SDS011;51446;53.850;10.662;2023-04-01T16:32:00;7.65;;;3.92;;
64932;SDS011;51446;53.850;10.662;2023-04-01T16:37:50;7.37;;;3.87;;
64932;SDS011;51446;53.850;10.662;2023-04-01T16:43:12;5.85;;;3.50;;
64932;SDS011;51446;53.850;10.662;2023-04-01T16:46:12;5.70;;;3.65;;
64932;SDS011;51446;53.850;10.662;2023-04-01T16:51:46;5.27;;;3.63;;
64932;SDS011;51446;53.850;10.662;2023-04-01T16:57:21;4.38;;;3.60;;
64932;SDS011;51446;53.850;10.662;2023-04-01T16:59:54;6.50;;;3.67;;
64932;SDS011;51446;53.850;10.662;2023-04-01T17:02:38;8.30;;;3.55;;
64932;SDS011;51446;53.850;10.662;2023-04-01T17:05:12;4.03;;;3.47;;
64932;SDS011;51446;53.850;10.662;2023-04-01T17:21:05;4.47;;;3.40;;
64932;SDS011;51446;53.850;10.662;2023-04-01T17:23:43;8.10;;;4.05;;
64932;SDS011;51446;53.850;10.662;2023-04-01T17:26:17;4.23;;;3.23;;
64932;SDS011;51446;53.850;10.662;2023-04-01T17:29:02;5.90;;;3.60;;
64932;SDS011;51446;53.850;10.662;2023-04-01T17:37:34;7.07;;;3.88;;
64932;SDS011;51446;53.850;10.662;2023-04-01T17:43:06;7.90;;;3.25;;
64932;SDS011;51446;53.850;10.662;2023-04-01T17:45:47;4.68;;;3.70;;
64932;SDS011;51446;53.850;10.662;2023-04-01T17:48:24;5.45;;;3.60;;
64932;SDS011;51446;53.850;10.662;2023-04-01T17:51:10;5.97;;;3.65;;
64932;SDS011;51446;53.850;10.662;2023-04-01T17:59:06;8.13;;;3.95;;
64932;SDS011;51446;53.850;10.662;2023-04-01T18:07:26;5.60;;;3.70;;
64932;SDS011;51446;53.850;10.662;2023-04-01T18:10:17;4.20;;;3.40;;
64932;SDS011;51446;53.850;10.662;2023-04-01T18:18:43;7.38;;;4.18;;
64932;SDS011;51446;53.850;10.662;2023-04-01T18:21:33;11.17;;;3.83;;
64932;SDS011;51446;53.850;10.662;2023-04-01T18:26:41;5.07;;;3.40;;
64932;SDS011;51446;53.850;10.662;2023-04-01T18:29:12;5.75;;;3.58;;
64932;SDS011;51446;53.850;10.662;2023-04-01T18:37:14;6.40;;;3.00;;
64932;SDS011;51446;53.850;10.662;2023-04-01T18:39:49;9.82;;;3.70;;
64932;SDS011;51446;53.850;10.662;2023-04-01T18:45:09;7.78;;;4.00;;
64932;SDS011;51446;53.850;10.662;2023-04-01T18:47:49;5.97;;;3.07;;
64932;SDS011;51446;53.850;10.662;2023-04-01T18:56:02;8.63;;;3.75;;
64932;SDS011;51446;53.850;10.662;2023-04-01T18:58:46;8.43;;;3.25;;
64932;SDS011;51446;53.850;10.662;2023-04-01T19:01:16;6.43;;;3.77;;
64932;SDS011;51446;53.850;10.662;2023-04-01T19:03:57;3.55;;;3.10;;
64932;SDS011;51446;53.850;10.662;2023-04-01T19:06:33;4.43;;;3.10;;
64932;SDS011;51446;53.850;10.662;2023-04-01T19:11:53;3.55;;;2.90;;
64932;SDS011;51446;53.850;10.662;2023-04-01T19:14:35;6.00;;;3.13;;
64932;SDS011;51446;53.850;10.662;2023-04-01T19:26:20;6.95;;;3.22;;
64932;SDS011;51446;53.850;10.662;2023-04-01T19:28:54;4.00;;;3.30;;
64932;SDS011;51446;53.850;10.662;2023-04-01T19:31:47;5.18;;;3.10;;
64932;SDS011;51446;53.850;10.662;2023-04-01T19:37:26;4.22;;;2.95;;
64932;SDS011;51446;53.850;10.662;2023-04-01T19:40:04;7.30;;;3.10;;
64932;SDS011;51446;53.850;10.662;2023-04-01T19:43:06;8.17;;;3.10;;
64932;SDS011;51446;53.850;10.662;2023-04-01T19:45:46;6.47;;;3.08;;
64932;SDS011;51446;53.850;10.662;2023-04-01T19:51:14;5.75;;;3.10;;
64932;SDS011;51446;53.850;10.662;2023-04-01T19:56:39;6.70;;;3.67;;
64932;SDS011;51446;53.850;10.662;2023-04-01T19:59:19;9.50;;;3.05;;
64932;SDS011;51446;53.850;10.662;2023-04-01T20:04:31;9.15;;;3.45;;
64932;SDS011;51446;53.850;10.662;2023-04-01T20:09:48;6.70;;;3.10;;
64932;SDS011;51446;53.850;10.662;2023-04-01T20:15:42;4.07;;;3.20;;
64932;SDS011;51446;53.850;10.662;2023-04-01T20:18:15;7.30;;;3.03;;
64932;SDS011;51446;53.850;10.662;2023-04-01T20:21:03;6.05;;;3.03;;
64932;SDS011;51446;53.850;10.662;2023-04-01T20:26:18;6.68;;;3.22;;
64932;SDS011;51446;53.850;10.662;2023-04-01T20:29:04;8.13;;;2.75;;
64932;SDS011;51446;53.850;10.662;2023-04-01T20:31:42;3.90;;;2.80;;
64932;SDS011;51446;53.850;10.662;2023-04-01T20:51:43;6.77;;;2.80;;
64932;SDS011;51446;53.850;10.662;2023-04-01T20:54:26;4.22;;;2.95;;
64932;SDS011;51446;53.850;10.662;2023-04-01T20:57:02;7.68;;;2.90;;
64932;SDS011;51446;53.850;10.662;2023-04-01T21:05:25;3.83;;;2.40;;
64932;SDS011;51446;53.850;10.662;2023-04-01T21:13:53;4.90;;;2.38;;
64932;SDS011;51446;53.850;10.662;2023-04-01T21:19:03;7.20;;;3.27;;
64932;SDS011;51446;53.850;10.662;2023-04-01T21:24:31;4.40;;;2.67;;
64932;SDS011;51446;53.850;10.662;2023-04-01T21:30:19;4.78;;;2.83;;
64932;SDS011;51446;53.850;10.662;2023-04-01T21:38:41;4.75;;;2.70;;
64932;SDS011;51446;53.850;10.662;2023-04-01T21:49:53;5.50;;;2.75;;
64932;SDS011;51446;53.850;10.662;2023-04-01T21:52:45;7.28;;;2.78;;
64932;SDS011;51446;53.850;10.662;2023-04-01T21:55:36;5.72;;;2.50;;
64932;SDS011;51446;53.850;10.662;2023-04-01T22:01:14;2.73;;;2.30;;
64932;SDS011;51446;53.850;10.662;2023-04-01T22:10:04;7.35;;;2.20;;
64932;SDS011;51446;53.850;10.662;2023-04-01T22:12:45;11.05;;;2.75;;
64932;SDS011;51446;53.850;10.662;2023-04-01T22:18:20;5.10;;;2.55;;
64932;SDS011;51446;53.850;10.662;2023-04-01T22:21:04;3.78;;;2.38;;
64932;SDS011;51446;53.850;10.662;2023-04-01T22:23:39;3.83;;;2.30;;
64932;SDS011;51446;53.850;10.662;2023-04-01T22:26:14;4.15;;;2.58;;
64932;SDS011;51446;53.850;10.662;2023-04-01T22:28:51;3.03;;;2.20;;
64932;SDS011;51446;53.850;10.662;2023-04-01T22:31:26;4.75;;;2.83;;
64932;SDS011;51446;53.850;10.662;2023-04-01T22:39:40;3.63;;;2.45;;
64932;SDS011;51446;53.850;10.662;2023-04-01T22:42:25;5.07;;;2.50;;
64932;SDS011;51446;53.850;10.662;2023-04-01T22:51:02;5.00;;;2.47;;
64932;SDS011;51446;53.850;10.662;2023-04-01T22:56:23;6.83;;;2.93;;
64932;SDS011;51446;53.850;10.662;2023-04-01T22:58:56;3.88;;;2.42;;
64932;SDS011;51446;53.850;10.662;2023-04-01T23:01:30;2.50;;;2.30;;
64932;SDS011;51446;53.850;10.662;2023-04-01T23:03:59;3.40;;;2.40;;
64932;SDS011;51446;53.850;10.662;2023-04-01T23:06:31;3.58;;;2.50;;
64932;SDS011;51446;53.850;10.662;2023-04-01T23:09:02;5.07;;;2.40;;
64932;SDS011;51446;53.850;10.662;2023-04-01T23:11:38;4.55;;;2.80;;
64932;SDS011;51446;53.850;10.662;2023-04-01T23:16:48;4.57;;;3.05;;
64932;SDS011;51446;53.850;10.662;2023-04-01T23:22:27;4.53;;;3.23;;
64932;SDS011;51446;53.850;10.662;2023-04-01T23:25:00;2.53;;;2.30;;
64932;SDS011;51446;53.850;10.662;2023-04-01T23:27:45;3.20;;;2.70;;
64932;SDS011;51446;53.850;10.662;2023-04-01T23:35:50;6.17;;;2.90;;
64932;SDS011;51446;53.850;10.662;2023-04-01T23:38:18;4.00;;;2.40;;
64932;SDS011;51446;53.850;10.662;2023-04-01T23:40:47;3.30;;;2.60;;
64932;SDS011;51446;53.850;10.662;2023-04-01T23:43:19;4.65;;;2.30;;
64932;SDS011;51446;53.850;10.662;2023-04-01T23:45:49;7.30;;;2.40;;
64932;SDS011;51446;53.850;10.662;2023-04-01T23:48:15;8.50;;;2.90;;
64932;SDS011;51446;53.850;10.662;2023-04-01T23:50:43;4.28;;;2.67;;
64932;SDS011;51446;53.850;10.662;2023-04-01T23:53:12;4.53;;;2.35;;
64932;SDS011;51446;53.850;10.662;2023-04-01T23:55:46;2.43;;;2.27;;
